sensor_id;sensor_type;location;lat;lon;timestamp;temperature;humidity
8593;DHT22;4334;49.982;8.398;2023-06-14T00:30:03;18.90;72.00
8593;DHT22;4334;49.982;8.398;2023-06-14T00:42:25;18.90;72.60
8593;DHT22;4334;49.982;8.398;2023-06-14T00:47:21;18.80;72.50
8593;DHT22;4334;49.982;8.398;2023-06-14T00:59:43;18.70;73.80
8593;DHT22;4334;49.982;8.398;2023-06-14T01:04:39;18.60;74.20
8593;DHT22;4334;49.982;8.398;2023-06-14T01:12:16;18.80;73.90
8593;DHT22;4334;49.982;8.398;2023-06-14T01:19:43;18.50;74.80
8593;DHT22;4334;49.982;8.398;2023-06-14T01:44:30;18.10;76.50
8593;DHT22;4334;49.982;8.398;2023-06-14T01:49:25;18.00;76.80
8593;DHT22;4334;49.982;8.398;2023-06-14T04:49:17;19.30;75.70
8593;DHT22;4334;49.982;8.398;2023-06-14T04:51:45;19.50;75.60
8593;DHT22;4334;49.982;8.398;2023-06-14T04:54:16;19.70;75.30
8593;DHT22;4334;49.982;8.398;2023-06-14T04:56:44;19.70;74.60
8593;DHT22;4334;49.982;8.398;2023-06-14T04:59:11;19.70;75.30
8593;DHT22;4334;49.982;8.398;2023-06-14T05:01:40;19.90;74.50
8593;DHT22;4334;49.982;8.398;2023-06-14T05:04:07;20.20;74.00
8593;DHT22;4334;49.982;8.398;2023-06-14T05:06:34;20.20;72.60
8593;DHT22;4334;49.982;8.398;2023-06-14T05:09:03;20.00;74.20
8593;DHT22;4334;49.982;8.398;2023-06-14T05:11:29;20.50;74.30
8593;DHT22;4334;49.982;8.398;2023-06-14T05:13:56;20.90;72.60
8593;DHT22;4334;49.982;8.398;2023-06-14T05:18:52;20.80;72.90
8593;DHT22;4334;49.982;8.398;2023-06-14T05:21:19;20.70;73.00
8593;DHT22;4334;49.982;8.398;2023-06-14T05:23:46;20.70;72.80
8593;DHT22;4334;49.982;8.398;2023-06-14T05:26:14;21.00;73.10
8593;DHT22;4334;49.982;8.398;2023-06-14T05:28:41;21.10;72.40
8593;DHT22;4334;49.982;8.398;2023-06-14T05:31:08;21.30;71.70
8593;DHT22;4334;49.982;8.398;2023-06-14T05:36:02;21.80;71.30
8593;DHT22;4334;49.982;8.398;2023-06-14T05:38:28;21.50;70.30
8593;DHT22;4334;49.982;8.398;2023-06-14T05:43:24;21.30;70.40
8593;DHT22;4334;49.982;8.398;2023-06-14T05:45:50;21.40;69.70
8593;DHT22;4334;49.982;8.398;2023-06-14T05:50:44;22.30;68.40
8593;DHT22;4334;49.982;8.398;2023-06-14T05:55:38;22.20;68.10
8593;DHT22;4334;49.982;8.398;2023-06-14T06:00:33;21.80;69.10
8593;DHT22;4334;49.982;8.398;2023-06-14T06:03:00;21.70;68.40
8593;DHT22;4334;49.982;8.398;2023-06-14T06:05:27;21.80;68.50
8593;DHT22;4334;49.982;8.398;2023-06-14T06:07:53;21.50;69.20
8593;DHT22;4334;49.982;8.398;2023-06-14T06:10:21;21.10;70.10
8593;DHT22;4334;49.982;8.398;2023-06-14T06:12:48;21.40;69.90
8593;DHT22;4334;49.982;8.398;2023-06-14T06:15:17;21.50;69.80
8593;DHT22;4334;49.982;8.398;2023-06-14T06:17:45;21.30;69.80
8593;DHT22;4334;49.982;8.398;2023-06-14T06:20:12;21.30;70.20
8593;DHT22;4334;49.982;8.398;2023-06-14T06:22:39;21.30;71.00
8593;DHT22;4334;49.982;8.398;2023-06-14T06:25:07;21.50;70.60
8593;DHT22;4334;49.982;8.398;2023-06-14T06:27:34;21.70;70.40
8593;DHT22;4334;49.982;8.398;2023-06-14T06:30:01;21.90;69.60
8593;DHT22;4334;49.982;8.398;2023-06-14T06:32:28;22.00;70.70
8593;DHT22;4334;49.982;8.398;2023-06-14T06:34:56;22.10;70.90
8593;DHT22;4334;49.982;8.398;2023-06-14T06:37:25;22.00;70.40
8593;DHT22;4334;49.982;8.398;2023-06-14T06:39:52;22.00;70.30
8593;DHT22;4334;49.982;8.398;2023-06-14T06:42:19;21.90;71.10
8593;DHT22;4334;49.982;8.398;2023-06-14T06:44:46;27.20;76.20
8593;DHT22;4334;49.982;8.398;2023-06-14T06:47:13;22.30;69.60
8593;DHT22;4334;49.982;8.398;2023-06-14T06:49:39;21.80;70.10
8593;DHT22;4334;49.982;8.398;2023-06-14T06:52:08;21.90;70.40
8593;DHT22;4334;49.982;8.398;2023-06-14T06:54:35;21.80;72.00
8593;DHT22;4334;49.982;8.398;2023-06-14T06:57:02;22.10;71.10
8593;DHT22;4334;49.982;8.398;2023-06-14T06:59:28;22.60;69.70
8593;DHT22;4334;49.982;8.398;2023-06-14T07:04:22;22.50;69.70
8593;DHT22;4334;49.982;8.398;2023-06-14T07:06:49;22.70;70.30
8593;DHT22;4334;49.982;8.398;2023-06-14T07:09:18;22.40;69.30
8593;DHT22;4334;49.982;8.398;2023-06-14T07:11:46;22.40;70.20
8593;DHT22;4334;49.982;8.398;2023-06-14T07:14:13;22.70;71.00
8593;DHT22;4334;49.982;8.398;2023-06-14T07:16:40;23.60;67.40
8593;DHT22;4334;49.982;8.398;2023-06-14T07:19:07;23.60;67.40
8593;DHT22;4334;49.982;8.398;2023-06-14T07:21:34;23.50;68.50
8593;DHT22;4334;49.982;8.398;2023-06-14T07:24:03;23.70;67.80
8593;DHT22;4334;49.982;8.398;2023-06-14T07:26:33;23.60;67.20
8593;DHT22;4334;49.982;8.398;2023-06-14T07:29:00;23.70;67.00
8593;DHT22;4334;49.982;8.398;2023-06-14T07:31:27;23.60;67.20
8593;DHT22;4334;49.982;8.398;2023-06-14T07:33:54;23.50;67.90
8593;DHT22;4334;49.982;8.398;2023-06-14T07:36:21;23.50;67.70
8593;DHT22;4334;49.982;8.398;2023-06-14T07:38:48;23.70;67.00
8593;DHT22;4334;49.982;8.398;2023-06-14T07:41:16;24.10;67.00
8593;DHT22;4334;49.982;8.398;2023-06-14T07:43:44;24.40;66.50
8593;DHT22;4334;49.982;8.398;2023-06-14T07:46:11;23.60;66.00
8593;DHT22;4334;49.982;8.398;2023-06-14T07:48:37;23.80;67.20
8593;DHT22;4334;49.982;8.398;2023-06-14T07:51:04;24.00;66.80
8593;DHT22;4334;49.982;8.398;2023-06-14T07:53:31;23.90;66.10
8593;DHT22;4334;49.982;8.398;2023-06-14T07:55:58;24.10;66.10
8593;DHT22;4334;49.982;8.398;2023-06-14T07:58:25;24.80;66.80
8593;DHT22;4334;49.982;8.398;2023-06-14T08:00:53;24.50;66.00
8593;DHT22;4334;49.982;8.398;2023-06-14T08:03:20;24.50;66.50
8593;DHT22;4334;49.982;8.398;2023-06-14T08:05:48;24.50;65.60
8593;DHT22;4334;49.982;8.398;2023-06-14T08:08:15;24.70;64.90
8593;DHT22;4334;49.982;8.398;2023-06-14T08:10:42;24.80;64.40
8593;DHT22;4334;49.982;8.398;2023-06-14T08:13:08;25.60;67.80
8593;DHT22;4334;49.982;8.398;2023-06-14T08:15:35;24.80;66.00
8593;DHT22;4334;49.982;8.398;2023-06-14T08:18:04;24.70;66.70
8593;DHT22;4334;49.982;8.398;2023-06-14T08:20:30;24.70;66.50
8593;DHT22;4334;49.982;8.398;2023-06-14T08:22:57;25.40;63.80
8593;DHT22;4334;49.982;8.398;2023-06-14T08:25:24;24.90;64.50
8593;DHT22;4334;49.982;8.398;2023-06-14T08:27:51;25.10;66.20
8593;DHT22;4334;49.982;8.398;2023-06-14T08:30:18;30.40;68.70
8593;DHT22;4334;49.982;8.398;2023-06-14T08:32:45;25.50;63.20
8593;DHT22;4334;49.982;8.398;2023-06-14T08:35:13;30.40;66.40
8593;DHT22;4334;49.982;8.398;2023-06-14T08:37:40;25.50;63.00
8593;DHT22;4334;49.982;8.398;2023-06-14T08:40:18;25.20;63.10
8593;DHT22;4334;49.982;8.398;2023-06-14T08:42:47;25.90;64.50
8593;DHT22;4334;49.982;8.398;2023-06-14T08:45:15;24.60;64.20
8593;DHT22;4334;49.982;8.398;2023-06-14T08:47:41;24.50;65.20
8593;DHT22;4334;49.982;8.398;2023-06-14T08:50:09;24.10;65.60
8593;DHT22;4334;49.982;8.398;2023-06-14T08:52:38;25.00;64.40
8593;DHT22;4334;49.982;8.398;2023-06-14T08:57:43;25.20;65.20
8593;DHT22;4334;49.982;8.398;2023-06-14T09:00:12;25.30;64.10
8593;DHT22;4334;49.982;8.398;2023-06-14T09:02:40;25.30;64.80
8593;DHT22;4334;49.982;8.398;2023-06-14T09:05:09;25.70;65.90
8593;DHT22;4334;49.982;8.398;2023-06-14T09:07:37;26.00;64.80
8593;DHT22;4334;49.982;8.398;2023-06-14T09:10:08;31.70;68.80
8593;DHT22;4334;49.982;8.398;2023-06-14T09:12:35;25.90;63.50
8593;DHT22;4334;49.982;8.398;2023-06-14T09:15:02;26.00;63.70
8593;DHT22;4334;49.982;8.398;2023-06-14T09:17:33;25.80;62.00
8593;DHT22;4334;49.982;8.398;2023-06-14T09:20:01;24.70;64.30
8593;DHT22;4334;49.982;8.398;2023-06-14T09:22:31;25.00;63.00
8593;DHT22;4334;49.982;8.398;2023-06-14T09:24:59;25.00;63.70
8593;DHT22;4334;49.982;8.398;2023-06-14T09:27:27;25.00;64.80
8593;DHT22;4334;49.982;8.398;2023-06-14T09:29:54;25.50;62.60
8593;DHT22;4334;49.982;8.398;2023-06-14T09:32:21;25.10;62.30
8593;DHT22;4334;49.982;8.398;2023-06-14T09:34:48;25.10;62.90
8593;DHT22;4334;49.982;8.398;2023-06-14T09:37:27;26.10;62.20
8593;DHT22;4334;49.982;8.398;2023-06-14T09:39:54;26.10;58.90
8593;DHT22;4334;49.982;8.398;2023-06-14T09:42:22;26.00;60.40
8593;DHT22;4334;49.982;8.398;2023-06-14T09:44:56;25.90;58.80
8593;DHT22;4334;49.982;8.398;2023-06-14T09:47:23;25.80;59.70
8593;DHT22;4334;49.982;8.398;2023-06-14T09:52:21;24.50;61.90
8593;DHT22;4334;49.982;8.398;2023-06-14T09:54:48;25.10;62.60
8593;DHT22;4334;49.982;8.398;2023-06-14T09:57:16;25.80;60.60
8593;DHT22;4334;49.982;8.398;2023-06-14T09:59:45;25.30;60.50
8593;DHT22;4334;49.982;8.398;2023-06-14T10:02:21;26.00;61.50
8593;DHT22;4334;49.982;8.398;2023-06-14T10:04:56;26.50;60.20
8593;DHT22;4334;49.982;8.398;2023-06-14T10:07:26;25.60;61.80
8593;DHT22;4334;49.982;8.398;2023-06-14T10:09:57;29.60;62.30
8593;DHT22;4334;49.982;8.398;2023-06-14T10:12:25;26.50;60.70
8593;DHT22;4334;49.982;8.398;2023-06-14T10:14:58;26.70;58.80
8593;DHT22;4334;49.982;8.398;2023-06-14T10:17:33;26.60;59.30
8593;DHT22;4334;49.982;8.398;2023-06-14T10:20:14;26.70;59.80
8593;DHT22;4334;49.982;8.398;2023-06-14T10:22:47;25.60;60.60
8593;DHT22;4334;49.982;8.398;2023-06-14T10:25:26;25.70;61.20
8593;DHT22;4334;49.982;8.398;2023-06-14T10:28:02;26.60;59.30
8593;DHT22;4334;49.982;8.398;2023-06-14T10:30:30;26.50;59.80
8593;DHT22;4334;49.982;8.398;2023-06-14T10:33:04;27.10;58.10
8593;DHT22;4334;49.982;8.398;2023-06-14T10:35:31;27.10;58.70
8593;DHT22;4334;49.982;8.398;2023-06-14T10:38:07;29.00;61.00
8593;DHT22;4334;49.982;8.398;2023-06-14T10:40:34;26.20;59.20
8593;DHT22;4334;49.982;8.398;2023-06-14T10:43:00;25.70;59.30
8593;DHT22;4334;49.982;8.398;2023-06-14T10:45:27;26.70;59.50
8593;DHT22;4334;49.982;8.398;2023-06-14T10:47:57;26.80;60.00
8593;DHT22;4334;49.982;8.398;2023-06-14T10:50:28;27.40;59.10
8593;DHT22;4334;49.982;8.398;2023-06-14T10:52:55;27.50;58.00
8593;DHT22;4334;49.982;8.398;2023-06-14T10:55:22;27.00;57.60
8593;DHT22;4334;49.982;8.398;2023-06-14T10:57:51;26.10;58.20
8593;DHT22;4334;49.982;8.398;2023-06-14T11:00:22;26.70;58.20
8593;DHT22;4334;49.982;8.398;2023-06-14T11:03:24;27.70;57.60
8593;DHT22;4334;49.982;8.398;2023-06-14T11:05:57;27.60;58.10
8593;DHT22;4334;49.982;8.398;2023-06-14T11:08:51;28.20;56.30
8593;DHT22;4334;49.982;8.398;2023-06-14T11:11:23;28.30;56.40
8593;DHT22;4334;49.982;8.398;2023-06-14T11:13:52;27.40;57.60
8593;DHT22;4334;49.982;8.398;2023-06-14T11:16:19;28.20;56.30
8593;DHT22;4334;49.982;8.398;2023-06-14T11:18:47;27.50;55.80
8593;DHT22;4334;49.982;8.398;2023-06-14T11:21:17;28.10;56.50
8593;DHT22;4334;49.982;8.398;2023-06-14T11:23:49;28.50;55.10
8593;DHT22;4334;49.982;8.398;2023-06-14T11:26:24;29.50;54.60
8593;DHT22;4334;49.982;8.398;2023-06-14T11:28:55;29.30;54.20
8593;DHT22;4334;49.982;8.398;2023-06-14T11:31:23;28.30;56.50
8593;DHT22;4334;49.982;8.398;2023-06-14T11:33:53;26.80;57.50
8593;DHT22;4334;49.982;8.398;2023-06-14T11:36:20;26.20;57.20
8593;DHT22;4334;49.982;8.398;2023-06-14T11:38:48;26.20;57.10
8593;DHT22;4334;49.982;8.398;2023-06-14T11:41:14;26.20;57.70
8593;DHT22;4334;49.982;8.398;2023-06-14T11:43:41;27.20;57.40
8593;DHT22;4334;49.982;8.398;2023-06-14T11:46:12;28.20;56.10
8593;DHT22;4334;49.982;8.398;2023-06-14T11:48:41;28.40;56.60
8593;DHT22;4334;49.982;8.398;2023-06-14T11:51:10;27.80;56.20
8593;DHT22;4334;49.982;8.398;2023-06-14T11:53:37;26.60;58.80
8593;DHT22;4334;49.982;8.398;2023-06-14T11:56:04;26.40;57.20
8593;DHT22;4334;49.982;8.398;2023-06-14T11:58:31;26.90;57.50
8593;DHT22;4334;49.982;8.398;2023-06-14T12:00:58;30.00;56.70
8593;DHT22;4334;49.982;8.398;2023-06-14T12:03:25;29.00;54.10
8593;DHT22;4334;49.982;8.398;2023-06-14T12:06:02;28.40;55.50
8593;DHT22;4334;49.982;8.398;2023-06-14T12:08:34;28.00;55.50
8593;DHT22;4334;49.982;8.398;2023-06-14T12:11:05;25.70;57.80
8593;DHT22;4334;49.982;8.398;2023-06-14T12:13:34;25.60;59.10
8593;DHT22;4334;49.982;8.398;2023-06-14T12:18:33;25.50;59.40
8593;DHT22;4334;49.982;8.398;2023-06-14T12:21:01;25.50;59.60
8593;DHT22;4334;49.982;8.398;2023-06-14T12:23:42;25.50;60.10
8593;DHT22;4334;49.982;8.398;2023-06-14T12:26:09;26.10;60.10
8593;DHT22;4334;49.982;8.398;2023-06-14T12:28:35;26.10;60.40
8593;DHT22;4334;49.982;8.398;2023-06-14T12:31:02;27.30;58.60
8593;DHT22;4334;49.982;8.398;2023-06-14T12:33:30;27.20;56.70
8593;DHT22;4334;49.982;8.398;2023-06-14T12:35:57;27.00;57.00
8593;DHT22;4334;49.982;8.398;2023-06-14T12:38:24;25.50;57.60
8593;DHT22;4334;49.982;8.398;2023-06-14T12:40:52;24.70;58.00
8593;DHT22;4334;49.982;8.398;2023-06-14T12:53:08;25.50;59.70
8593;DHT22;4334;49.982;8.398;2023-06-14T12:58:03;26.30;57.20
8593;DHT22;4334;49.982;8.398;2023-06-14T13:00:30;26.30;57.70
8593;DHT22;4334;49.982;8.398;2023-06-14T13:02:57;26.30;58.10
8593;DHT22;4334;49.982;8.398;2023-06-14T13:05:24;27.30;58.10
8593;DHT22;4334;49.982;8.398;2023-06-14T13:07:51;28.20;56.70
8593;DHT22;4334;49.982;8.398;2023-06-14T13:10:17;28.20;55.30
8593;DHT22;4334;49.982;8.398;2023-06-14T13:12:44;27.50;56.90
8593;DHT22;4334;49.982;8.398;2023-06-14T13:15:13;27.30;57.30
8593;DHT22;4334;49.982;8.398;2023-06-14T13:17:40;27.20;56.00
8593;DHT22;4334;49.982;8.398;2023-06-14T13:20:09;26.60;56.20
8593;DHT22;4334;49.982;8.398;2023-06-14T13:22:36;26.60;56.10
8593;DHT22;4334;49.982;8.398;2023-06-14T13:25:06;26.50;55.20
8593;DHT22;4334;49.982;8.398;2023-06-14T13:32:28;25.40;57.40
8593;DHT22;4334;49.982;8.398;2023-06-14T13:42:17;25.00;57.00
8593;DHT22;4334;49.982;8.398;2023-06-14T13:49:39;27.00;56.00
8593;DHT22;4334;49.982;8.398;2023-06-14T13:52:06;27.30;55.20
8593;DHT22;4334;49.982;8.398;2023-06-14T13:54:33;27.40;55.20
8593;DHT22;4334;49.982;8.398;2023-06-14T13:57:01;27.90;55.50
8593;DHT22;4334;49.982;8.398;2023-06-14T13:59:28;28.80;54.10
8593;DHT22;4334;49.982;8.398;2023-06-14T14:01:54;29.60;52.00
8593;DHT22;4334;49.982;8.398;2023-06-14T14:04:21;28.20;52.00
8593;DHT22;4334;49.982;8.398;2023-06-14T14:06:49;27.10;53.40
8593;DHT22;4334;49.982;8.398;2023-06-14T14:09:16;26.20;55.60
8593;DHT22;4334;49.982;8.398;2023-06-14T14:24:00;24.70;56.50
8593;DHT22;4334;49.982;8.398;2023-06-14T14:31:21;27.80;55.20
8593;DHT22;4334;49.982;8.398;2023-06-14T14:33:48;29.20;52.40
8593;DHT22;4334;49.982;8.398;2023-06-14T14:36:15;29.30;52.80
8593;DHT22;4334;49.982;8.398;2023-06-14T14:38:41;30.10;51.70
8593;DHT22;4334;49.982;8.398;2023-06-14T14:41:09;31.50;50.00
8593;DHT22;4334;49.982;8.398;2023-06-14T14:43:36;30.40;50.80
8593;DHT22;4334;49.982;8.398;2023-06-14T14:46:03;27.50;52.50
8593;DHT22;4334;49.982;8.398;2023-06-14T14:48:29;27.30;54.20
8593;DHT22;4334;49.982;8.398;2023-06-14T14:50:56;26.40;54.20
8593;DHT22;4334;49.982;8.398;2023-06-14T14:53:23;26.40;54.40
8593;DHT22;4334;49.982;8.398;2023-06-14T14:55:50;26.00;54.20
8593;DHT22;4334;49.982;8.398;2023-06-14T14:58:18;26.20;54.00
8593;DHT22;4334;49.982;8.398;2023-06-14T15:00:45;27.30;54.10
8593;DHT22;4334;49.982;8.398;2023-06-14T15:03:12;33.40;55.80
8593;DHT22;4334;49.982;8.398;2023-06-14T15:05:39;29.60;53.30
8593;DHT22;4334;49.982;8.398;2023-06-14T15:08:06;29.00;53.60
8593;DHT22;4334;49.982;8.398;2023-06-14T15:10:37;28.80;54.40
8593;DHT22;4334;49.982;8.398;2023-06-14T15:13:05;28.30;54.90
8593;DHT22;4334;49.982;8.398;2023-06-14T15:15:34;27.30;55.80
8593;DHT22;4334;49.982;8.398;2023-06-14T15:18:00;26.60;56.80
8593;DHT22;4334;49.982;8.398;2023-06-14T15:20:27;26.40;57.20
8593;DHT22;4334;49.982;8.398;2023-06-14T15:22:54;26.40;57.20
8593;DHT22;4334;49.982;8.398;2023-06-14T15:25:25;26.20;57.00
8593;DHT22;4334;49.982;8.398;2023-06-14T15:27:51;25.50;57.40
8593;DHT22;4334;49.982;8.398;2023-06-14T15:32:47;25.20;57.40
8593;DHT22;4334;49.982;8.398;2023-06-14T15:35:16;25.80;57.50
8593;DHT22;4334;49.982;8.398;2023-06-14T15:37:42;26.00;58.10
8593;DHT22;4334;49.982;8.398;2023-06-14T15:40:10;28.20;56.30
8593;DHT22;4334;49.982;8.398;2023-06-14T15:42:36;29.50;54.10
8593;DHT22;4334;49.982;8.398;2023-06-14T15:45:05;30.10;53.00
8593;DHT22;4334;49.982;8.398;2023-06-14T15:47:31;30.30;52.00
8593;DHT22;4334;49.982;8.398;2023-06-14T15:49:59;30.70;52.70
8593;DHT22;4334;49.982;8.398;2023-06-14T15:52:26;31.40;52.50
8593;DHT22;4334;49.982;8.398;2023-06-14T15:54:53;30.40;51.60
8593;DHT22;4334;49.982;8.398;2023-06-14T15:57:20;29.10;52.50
8593;DHT22;4334;49.982;8.398;2023-06-14T15:59:47;29.30;52.30
8593;DHT22;4334;49.982;8.398;2023-06-14T16:02:14;29.50;52.20
8593;DHT22;4334;49.982;8.398;2023-06-14T16:04:40;30.30;52.40
8593;DHT22;4334;49.982;8.398;2023-06-14T16:07:08;29.10;52.50
8593;DHT22;4334;49.982;8.398;2023-06-14T16:09:37;32.60;55.40
8593;DHT22;4334;49.982;8.398;2023-06-14T16:12:05;29.50;52.50
8593;DHT22;4334;49.982;8.398;2023-06-14T16:14:32;29.70;52.00
8593;DHT22;4334;49.982;8.398;2023-06-14T16:16:59;29.80;51.30
8593;DHT22;4334;49.982;8.398;2023-06-14T16:19:26;30.10;51.50
8593;DHT22;4334;49.982;8.398;2023-06-14T16:21:52;29.70;51.60
8593;DHT22;4334;49.982;8.398;2023-06-14T16:24:20;29.10;52.50
8593;DHT22;4334;49.982;8.398;2023-06-14T16:26:47;29.10;52.60
8593;DHT22;4334;49.982;8.398;2023-06-14T16:29:14;32.10;53.60
8593;DHT22;4334;49.982;8.398;2023-06-14T16:31:41;29.10;51.60
8593;DHT22;4334;49.982;8.398;2023-06-14T16:34:07;28.80;50.70
8593;DHT22;4334;49.982;8.398;2023-06-14T16:36:36;32.00;52.90
8593;DHT22;4334;49.982;8.398;2023-06-14T16:39:03;29.70;50.70
8593;DHT22;4334;49.982;8.398;2023-06-14T16:41:31;29.70;51.90
8593;DHT22;4334;49.982;8.398;2023-06-14T16:43:58;29.30;52.80
8593;DHT22;4334;49.982;8.398;2023-06-14T16:46:28;28.10;54.10
8593;DHT22;4334;49.982;8.398;2023-06-14T16:48:56;27.90;55.40
8593;DHT22;4334;49.982;8.398;2023-06-14T16:51:23;27.60;55.50
8593;DHT22;4334;49.982;8.398;2023-06-14T16:53:50;26.80;56.20
8593;DHT22;4334;49.982;8.398;2023-06-14T16:56:17;27.00;56.40
8593;DHT22;4334;49.982;8.398;2023-06-14T16:58:45;27.80;55.80
8593;DHT22;4334;49.982;8.398;2023-06-14T17:01:12;33.40;58.70
8593;DHT22;4334;49.982;8.398;2023-06-14T17:03:39;27.70;55.70
8593;DHT22;4334;49.982;8.398;2023-06-14T17:06:06;27.40;56.20
8593;DHT22;4334;49.982;8.398;2023-06-14T17:08:32;27.20;55.90
8593;DHT22;4334;49.982;8.398;2023-06-14T17:10:59;27.20;55.40
8593;DHT22;4334;49.982;8.398;2023-06-14T17:13:26;27.10;55.70
8593;DHT22;4334;49.982;8.398;2023-06-14T17:15:54;27.30;55.10
8593;DHT22;4334;49.982;8.398;2023-06-14T17:18:21;27.10;54.50
8593;DHT22;4334;49.982;8.398;2023-06-14T17:20:48;27.20;55.20
8593;DHT22;4334;49.982;8.398;2023-06-14T17:23:15;27.40;55.50
8593;DHT22;4334;49.982;8.398;2023-06-14T17:25:42;26.90;56.00
8593;DHT22;4334;49.982;8.398;2023-06-14T17:28:08;26.30;56.40
8593;DHT22;4334;49.982;8.398;2023-06-14T17:33:07;25.50;57.60
8593;DHT22;4334;49.982;8.398;2023-06-14T17:35:34;25.40;58.50
8593;DHT22;4334;49.982;8.398;2023-06-14T17:38:01;25.30;58.40
8593;DHT22;4334;49.982;8.398;2023-06-14T17:40:28;25.20;58.60
8593;DHT22;4334;49.982;8.398;2023-06-14T17:45:23;25.60;58.80
8593;DHT22;4334;49.982;8.398;2023-06-14T17:47:50;25.60;58.00
8593;DHT22;4334;49.982;8.398;2023-06-14T17:50:18;25.30;58.00
8593;DHT22;4334;49.982;8.398;2023-06-14T17:52:44;25.30;58.90
8593;DHT22;4334;49.982;8.398;2023-06-14T17:55:11;25.40;58.40
8593;DHT22;4334;49.982;8.398;2023-06-14T18:00:06;22.50;56.20
8593;DHT22;4334;49.982;8.398;2023-06-14T18:07:29;24.30;59.60
8593;DHT22;4334;49.982;8.398;2023-06-14T18:09:56;24.60;59.70
8593;DHT22;4334;49.982;8.398;2023-06-14T18:19:45;20.50;57.30
8593;DHT22;4334;49.982;8.398;2023-06-14T18:22:12;23.90;61.10
8593;DHT22;4334;49.982;8.398;2023-06-14T18:24:40;23.90;61.00
8593;DHT22;4334;49.982;8.398;2023-06-14T18:27:07;23.90;60.10
8593;DHT22;4334;49.982;8.398;2023-06-14T18:29:36;24.00;60.10
8593;DHT22;4334;49.982;8.398;2023-06-14T18:32:03;23.90;60.00
8593;DHT22;4334;49.982;8.398;2023-06-14T18:34:30;23.90;60.30
8593;DHT22;4334;49.982;8.398;2023-06-14T18:36:57;24.00;60.30
8593;DHT22;4334;49.982;8.398;2023-06-14T18:39:24;19.60;56.50
8593;DHT22;4334;49.982;8.398;2023-06-14T18:41:52;24.00;60.30
8593;DHT22;4334;49.982;8.398;2023-06-14T18:44:19;24.00;60.70
8593;DHT22;4334;49.982;8.398;2023-06-14T18:46:46;23.90;60.80
8593;DHT22;4334;49.982;8.398;2023-06-14T18:49:12;23.90;61.80
8593;DHT22;4334;49.982;8.398;2023-06-14T18:51:39;23.80;62.00
8593;DHT22;4334;49.982;8.398;2023-06-14T18:54:06;23.70;62.50
8593;DHT22;4334;49.982;8.398;2023-06-14T18:56:33;23.60;62.90
8593;DHT22;4334;49.982;8.398;2023-06-14T18:59:01;23.40;62.60
8593;DHT22;4334;49.982;8.398;2023-06-14T19:03:56;23.20;62.00
8593;DHT22;4334;49.982;8.398;2023-06-14T19:06:22;23.10;63.20
8593;DHT22;4334;49.982;8.398;2023-06-14T19:08:51;23.00;63.10
8593;DHT22;4334;49.982;8.398;2023-06-14T19:11:18;22.90;63.30
8593;DHT22;4334;49.982;8.398;2023-06-14T19:13:44;22.70;62.70
8593;DHT22;4334;49.982;8.398;2023-06-14T19:16:13;25.20;66.10
8593;DHT22;4334;49.982;8.398;2023-06-14T19:18:39;22.60;63.90
8593;DHT22;4334;49.982;8.398;2023-06-14T19:21:06;22.40;63.20
8593;DHT22;4334;49.982;8.398;2023-06-14T19:23:33;22.40;63.80
8593;DHT22;4334;49.982;8.398;2023-06-14T19:26:00;22.40;64.40
8593;DHT22;4334;49.982;8.398;2023-06-14T19:28:26;22.10;65.00
8593;DHT22;4334;49.982;8.398;2023-06-14T19:30:53;24.40;68.10
8593;DHT22;4334;49.982;8.398;2023-06-14T19:33:21;22.00;66.20
8593;DHT22;4334;49.982;8.398;2023-06-14T19:35:48;21.70;66.40
8593;DHT22;4334;49.982;8.398;2023-06-14T19:38:15;22.90;68.30
8593;DHT22;4334;49.982;8.398;2023-06-14T19:40:42;21.70;67.40
8593;DHT22;4334;49.982;8.398;2023-06-14T19:43:08;21.40;67.60
8593;DHT22;4334;49.982;8.398;2023-06-14T19:45:35;21.40;67.80
8593;DHT22;4334;49.982;8.398;2023-06-14T19:48:02;21.30;68.10
8593;DHT22;4334;49.982;8.398;2023-06-14T19:50:30;21.50;67.90
8593;DHT22;4334;49.982;8.398;2023-06-14T19:55:25;21.20;68.50
8593;DHT22;4334;49.982;8.398;2023-06-14T19:57:52;21.30;68.30
8593;DHT22;4334;49.982;8.398;2023-06-14T20:00:19;21.30;68.40
8593;DHT22;4334;49.982;8.398;2023-06-14T20:02:46;21.20;68.80
8593;DHT22;4334;49.982;8.398;2023-06-14T20:05:13;21.20;68.80
8593;DHT22;4334;49.982;8.398;2023-06-14T20:07:41;21.20;68.80
8593;DHT22;4334;49.982;8.398;2023-06-14T20:10:08;21.20;68.90
8593;DHT22;4334;49.982;8.398;2023-06-14T20:12:35;23.90;71.80
8593;DHT22;4334;49.982;8.398;2023-06-14T20:15:03;21.10;69.50
8593;DHT22;4334;49.982;8.398;2023-06-14T20:17:30;20.90;69.90
8593;DHT22;4334;49.982;8.398;2023-06-14T20:19:56;20.80;70.80
8593;DHT22;4334;49.982;8.398;2023-06-14T20:24:51;20.70;71.40
8593;DHT22;4334;49.982;8.398;2023-06-14T20:27:18;20.70;71.10
8593;DHT22;4334;49.982;8.398;2023-06-14T20:29:45;20.70;71.30
8593;DHT22;4334;49.982;8.398;2023-06-14T20:32:12;20.70;71.40
8593;DHT22;4334;49.982;8.398;2023-06-14T20:34:39;20.60;71.60
8593;DHT22;4334;49.982;8.398;2023-06-14T20:39:33;20.40;72.50
8593;DHT22;4334;49.982;8.398;2023-06-14T20:42:02;20.40;72.80
8593;DHT22;4334;49.982;8.398;2023-06-14T20:44:28;20.40;73.00
8593;DHT22;4334;49.982;8.398;2023-06-14T20:49:24;20.20;73.50
8593;DHT22;4334;49.982;8.398;2023-06-14T20:51:52;20.20;73.30
8593;DHT22;4334;49.982;8.398;2023-06-14T20:54:19;20.20;73.40
8593;DHT22;4334;49.982;8.398;2023-06-14T20:56:46;20.20;73.50
8593;DHT22;4334;49.982;8.398;2023-06-14T20:59:14;20.20;73.80
8593;DHT22;4334;49.982;8.398;2023-06-14T21:04:08;20.10;73.80
8593;DHT22;4334;49.982;8.398;2023-06-14T21:13:58;19.90;74.50
8593;DHT22;4334;49.982;8.398;2023-06-14T21:16:27;19.90;74.60
8593;DHT22;4334;49.982;8.398;2023-06-14T21:18:54;19.80;74.60
8593;DHT22;4334;49.982;8.398;2023-06-14T21:23:48;19.70;74.80
8593;DHT22;4334;49.982;8.398;2023-06-14T21:28:42;19.60;75.00
8593;DHT22;4334;49.982;8.398;2023-06-14T21:31:10;19.60;75.30
8593;DHT22;4334;49.982;8.398;2023-06-14T21:33:38;19.60;75.40
8593;DHT22;4334;49.982;8.398;2023-06-14T21:36:05;19.50;75.30
8593;DHT22;4334;49.982;8.398;2023-06-14T21:50:49;19.40;76.00
8593;DHT22;4334;49.982;8.398;2023-06-14T22:07:59;19.20;77.50
8593;DHT22;4334;49.982;8.398;2023-06-14T22:25:17;19.10;79.50
8593;DHT22;4334;49.982;8.398;2023-06-14T22:40:05;18.80;81.90
8593;DHT22;4334;49.982;8.398;2023-06-14T22:42:38;18.70;82.40
8593;DHT22;4334;49.982;8.398;2023-06-14T22:45:08;18.70;82.90
8593;DHT22;4334;49.982;8.398;2023-06-14T22:50:04;18.70;83.30
8593;DHT22;4334;49.982;8.398;2023-06-14T22:59:56;18.50;85.10
8593;DHT22;4334;49.982;8.398;2023-06-14T23:17:18;18.40;88.10
8593;DHT22;4334;49.982;8.398;2023-06-14T23:32:04;18.10;90.00
8593;DHT22;4334;49.982;8.398;2023-06-14T23:34:32;18.20;90.20
